Aviation Digital Data Service (ADDS)

Output produced by METARs form (0005 UTC 05 July 2022)
found at http://www.aviationweather.gov/metar/data/
 
METAR text: KLMO 042355Z AUTO 25004KT 10SM SCT050 SCT070 SCT090 29/07 A3000 RMK AO2 T02940070 10367 20287
Conditions at: KLMO (LONGMONT/VBRAND , CO, US) observed 2355 UTC 04 July 2022
Temperature: 29.4°C (85°F)
Dewpoint: 7.0°C (45°F) [RH = 24%]
Pressure (altimeter): 30.00 inches Hg (1016.0 mb)
Winds: from the WSW (250 degrees) at 5 MPH (4 knots; 2.1 m/s)
Visibility: 10 or more miles (16+ km)
Ceiling: at least 12,000 feet AGL
Clouds: scattered clouds at 5000 feet AGL
scattered clouds at 7000 feet AGL
scattered clouds at 9000 feet AGL
Weather: automated observation with no human augmentation;
there may or may not be significant weather present at this time